createdAt,value
2019-01-29T00:01:58.787Z,97189.37
2019-01-29T00:04:31.858Z,97193.66
2019-01-29T00:07:05.737Z,97195.86
2019-01-29T00:09:39.604Z,97197.70
2019-01-29T00:12:14.505Z,97196.26
2019-01-29T00:14:48.000Z,97200.45
2019-01-29T00:17:20.845Z,97203.60
2019-01-29T00:19:53.006Z,97213.66
2019-01-29T00:22:33.386Z,97206.89
2019-01-29T00:25:00.833Z,97218.84
2019-01-29T00:27:33.719Z,97222.50
2019-01-29T00:30:07.974Z,97214.90
2019-01-29T00:32:41.663Z,97221.66
2019-01-29T00:35:13.504Z,97224.81
2019-01-29T00:37:46.805Z,97223.02
2019-01-29T00:40:18.239Z,97221.36
2019-01-29T00:42:52.611Z,97221.23
2019-01-29T00:45:25.864Z,97219.84
2019-01-29T00:48:01.347Z,97223.48
2019-01-29T00:50:33.670Z,97224.42
2019-01-29T00:53:07.787Z,97232.25
2019-01-29T00:55:43.348Z,97228.77
2019-01-29T00:58:16.394Z,97222.34
2019-01-29T01:00:48.814Z,97233.95
2019-01-29T01:03:21.071Z,97231.95
2019-01-29T01:05:53.870Z,97223.06
2019-01-29T01:08:25.220Z,97232.97
2019-01-29T01:11:00.266Z,97234.48
2019-01-29T01:13:33.627Z,97246.34
2019-01-29T01:16:05.208Z,97249.33
2019-01-29T01:18:37.857Z,97247.08
2019-01-29T01:21:12.340Z,97248.23
2019-01-29T01:23:46.051Z,97257.92
2019-01-29T01:26:17.569Z,97258.78
2019-01-29T01:28:51.046Z,97259.42
2019-01-29T01:31:23.947Z,97256.05
2019-01-29T01:33:58.005Z,97270.09
2019-01-29T01:36:30.051Z,97255.75
2019-01-29T01:39:04.308Z,97274.98
2019-01-29T01:41:37.069Z,97259.88
2019-01-29T01:44:08.350Z,97274.60
2019-01-29T01:46:41.967Z,97279.75
2019-01-29T01:49:16.769Z,97275.41
2019-01-29T01:51:49.965Z,97275.59
2019-01-29T01:54:24.078Z,97275.54
2019-01-29T01:56:58.113Z,97278.00
2019-01-29T01:59:33.643Z,97280.91
2019-01-29T02:02:05.218Z,97274.36
2019-01-29T02:04:39.130Z,97282.47
2019-01-29T02:07:11.361Z,97280.17
2019-01-29T02:09:44.188Z,97277.72
2019-01-29T02:12:18.174Z,97285.03
2019-01-29T02:14:49.442Z,97287.16
2019-01-29T02:17:21.661Z,97298.64
2019-01-29T02:19:54.280Z,97303.06
2019-01-29T02:22:28.277Z,97307.39
2019-01-29T02:25:05.530Z,97302.42
2019-01-29T02:27:39.361Z,97308.67
2019-01-29T02:30:14.206Z,97311.43
2019-01-29T02:32:47.325Z,97314.96
2019-01-29T02:35:18.620Z,97310.87
2019-01-29T02:37:52.450Z,97327.90
2019-01-29T02:40:26.958Z,97319.52
2019-01-29T02:42:58.286Z,97327.05
2019-01-29T02:45:30.714Z,97322.16
2019-01-29T02:48:03.518Z,97326.31
2019-01-29T02:50:36.352Z,97339.48
2019-01-29T02:53:18.061Z,97336.01
2019-01-29T02:55:43.347Z,97347.41
2019-01-29T02:58:20.308Z,97344.30
2019-01-29T03:00:51.956Z,97338.01
2019-01-29T03:03:23.253Z,97340.31
2019-01-29T03:05:56.324Z,97345.41
2019-01-29T03:08:30.348Z,97357.03
2019-01-29T03:11:04.633Z,97361.06
2019-01-29T03:13:38.447Z,97363.20
2019-01-29T03:16:11.324Z,97372.37
2019-01-29T03:18:44.385Z,97365.69
2019-01-29T03:21:17.718Z,97374.14
2019-01-29T03:23:51.537Z,97382.06
2019-01-29T03:26:24.545Z,97388.36
2019-01-29T03:28:56.512Z,97391.80
2019-01-29T03:31:30.075Z,97397.13
2019-01-29T03:34:01.567Z,97399.66
2019-01-29T03:36:36.120Z,97406.20
2019-01-29T03:39:09.550Z,97412.08
2019-01-29T03:41:42.466Z,97413.64
2019-01-29T03:44:14.667Z,97424.91
2019-01-29T03:46:47.220Z,97427.95
2019-01-29T03:49:18.469Z,97435.13
2019-01-29T03:51:49.720Z,97436.60
2019-01-29T03:54:21.661Z,97441.20
2019-01-29T03:56:54.646Z,97441.88
2019-01-29T03:59:27.514Z,97440.51
2019-01-29T04:01:59.488Z,97439.44
2019-01-29T04:04:30.734Z,97449.67
2019-01-29T04:07:04.672Z,97453.58
2019-01-29T04:09:39.271Z,97448.52
2019-01-29T04:12:12.769Z,97461.18
2019-01-29T04:14:46.813Z,97461.48
2019-01-29T04:17:18.262Z,97460.27
2019-01-29T04:19:52.458Z,97465.39
2019-01-29T04:22:26.590Z,97462.56
2019-01-29T04:25:00.364Z,97469.66
2019-01-29T04:27:33.924Z,97473.39
2019-01-29T04:30:06.729Z,97478.55
2019-01-29T04:32:38.774Z,97481.58
2019-01-29T04:35:13.617Z,97483.31
2019-01-29T04:37:46.852Z,97486.78
2019-01-29T04:40:19.739Z,97495.20
2019-01-29T04:42:55.356Z,97490.20
2019-01-29T04:45:27.756Z,97492.17
2019-01-29T04:48:03.335Z,97501.85
2019-01-29T04:50:36.504Z,97503.85
2019-01-29T04:53:09.898Z,97505.52
2019-01-29T04:55:41.186Z,97511.70
2019-01-29T04:58:15.055Z,97506.73
2019-01-29T05:00:50.620Z,97513.80
2019-01-29T05:03:23.099Z,97519.51
2019-01-29T05:05:54.381Z,97524.13
2019-01-29T05:08:28.050Z,97530.08
2019-01-29T05:11:02.087Z,97532.42
2019-01-29T05:13:34.392Z,97535.08
2019-01-29T05:16:07.053Z,97539.70
2019-01-29T05:18:41.164Z,97539.19
2019-01-29T05:21:15.200Z,97542.77
2019-01-29T05:23:49.789Z,97543.10
2019-01-29T05:26:24.172Z,97548.44
2019-01-29T05:28:59.186Z,97553.11
2019-01-29T05:31:31.038Z,97543.14
2019-01-29T05:34:08.591Z,97556.43
2019-01-29T05:36:43.738Z,97561.52
2019-01-29T05:39:16.953Z,97564.75
2019-01-29T05:41:51.760Z,97578.44
2019-01-29T05:44:24.323Z,97574.94
2019-01-29T05:46:55.808Z,97588.38
2019-01-29T05:49:27.666Z,97596.34
2019-01-29T05:52:02.769Z,97583.50
2019-01-29T05:54:35.951Z,97594.49
2019-01-29T05:57:09.362Z,97591.83
2019-01-29T05:59:45.982Z,97600.27
2019-01-29T06:02:17.214Z,97602.78
2019-01-29T06:04:48.434Z,97609.20
2019-01-29T06:07:22.323Z,97609.80
2019-01-29T06:09:56.568Z,97619.41
2019-01-29T06:12:30.186Z,97628.06
2019-01-29T06:15:04.812Z,97627.05
2019-01-29T06:17:38.110Z,97620.88
2019-01-29T06:20:15.390Z,97631.72
2019-01-29T06:22:49.325Z,97628.94
2019-01-29T06:25:21.283Z,97642.36
2019-01-29T06:27:56.397Z,97642.36
2019-01-29T06:30:28.444Z,97638.23
2019-01-29T06:32:59.726Z,97640.34
2019-01-29T06:35:33.403Z,97652.72
2019-01-29T06:38:04.676Z,97651.31
2019-01-29T06:40:39.230Z,97659.18
2019-01-29T06:43:11.406Z,97662.77
2019-01-29T06:45:46.976Z,97671.72
2019-01-29T06:48:18.282Z,97671.55
2019-01-29T06:51:00.300Z,97675.58
2019-01-29T06:53:33.539Z,97676.05
2019-01-29T06:56:07.574Z,97688.10
2019-01-29T06:58:38.873Z,97683.14
2019-01-29T07:01:12.553Z,97694.39
2019-01-29T07:03:48.053Z,97697.45
2019-01-29T07:06:21.491Z,97699.01
2019-01-29T07:08:52.813Z,97711.69
2019-01-29T07:11:24.498Z,97714.02
2019-01-29T07:13:56.503Z,97711.08
2019-01-29T07:16:48.207Z,97707.56
2019-01-29T07:19:40.507Z,97715.34
2019-01-29T07:22:15.404Z,97716.95
2019-01-29T07:24:49.641Z,97726.59
2019-01-29T07:27:22.738Z,97727.63
2019-01-29T07:29:56.631Z,97727.33
2019-01-29T07:32:30.681Z,97730.63
2019-01-29T07:35:05.050Z,97743.00
2019-01-29T07:37:38.606Z,97743.58
2019-01-29T07:40:10.524Z,97736.28
2019-01-29T07:42:43.706Z,97748.14
2019-01-29T07:45:18.042Z,97746.95
2019-01-29T07:47:52.858Z,97749.45
2019-01-29T07:50:26.540Z,97753.41
2019-01-29T07:53:01.336Z,97758.38
2019-01-29T07:55:34.489Z,97756.05
2019-01-29T07:58:07.746Z,97752.94
2019-01-29T08:00:42.195Z,97752.94
2019-01-29T08:03:14.772Z,97762.46
2019-01-29T08:05:48.158Z,97763.91
2019-01-29T08:08:20.118Z,97753.94
2019-01-29T08:10:53.094Z,97770.13
2019-01-29T08:13:26.532Z,97765.29
2019-01-29T08:15:58.812Z,97773.84
2019-01-29T08:18:31.926Z,97778.34
2019-01-29T08:21:03.913Z,97781.55
2019-01-29T08:23:39.602Z,97776.35
2019-01-29T08:26:12.031Z,97786.62
2019-01-29T08:28:43.297Z,97787.06
2019-01-29T08:31:17.577Z,97791.89
2019-01-29T08:33:50.824Z,97792.40
2019-01-29T08:36:22.155Z,97791.27
2019-01-29T08:38:56.004Z,97786.12
2019-01-29T08:41:27.781Z,97796.50
2019-01-29T08:44:00.231Z,97801.62
2019-01-29T08:46:32.234Z,97804.83
2019-01-29T08:49:06.197Z,97800.57
2019-01-29T08:51:39.904Z,97806.15
2019-01-29T08:54:14.049Z,97809.10
2019-01-29T08:56:47.941Z,97813.79
2019-01-29T08:59:23.437Z,97819.15
2019-01-29T09:01:54.954Z,97813.59
2019-01-29T09:04:26.598Z,97813.45
2019-01-29T09:06:57.907Z,97818.27
2019-01-29T09:09:30.989Z,97816.47
2019-01-29T09:12:05.005Z,97822.28
2019-01-29T09:14:39.041Z,97826.31
2019-01-29T09:17:11.195Z,97825.30
2019-01-29T09:19:42.471Z,97828.48
2019-01-29T09:22:16.200Z,97832.34
2019-01-29T09:24:49.286Z,97836.87
2019-01-29T09:27:20.551Z,97837.05
2019-01-29T09:29:51.792Z,97843.13
2019-01-29T09:32:25.103Z,97844.22
2019-01-29T09:34:59.072Z,97840.30
2019-01-29T09:37:33.201Z,97838.90
2019-01-29T09:40:09.627Z,97841.09
2019-01-29T09:42:41.131Z,97849.28
2019-01-29T09:45:14.364Z,97844.66
2019-01-29T09:47:46.206Z,97847.03
2019-01-29T09:50:22.075Z,97843.08
2019-01-29T09:52:57.104Z,97845.38
2019-01-29T09:55:29.769Z,97851.80
2019-01-29T09:58:02.315Z,97845.50
2019-01-29T10:00:36.058Z,97842.48
2019-01-29T10:03:07.641Z,97846.53
2019-01-29T10:05:42.291Z,97837.60
2019-01-29T10:08:15.359Z,97833.88
2019-01-29T10:10:48.481Z,97833.41
2019-01-29T10:13:21.357Z,97835.43
2019-01-29T10:15:54.076Z,97836.52
2019-01-29T10:18:25.354Z,97831.69
2019-01-29T10:20:59.227Z,97828.07
2019-01-29T10:23:33.418Z,97826.59
2019-01-29T10:26:07.466Z,97821.74
2019-01-29T10:28:41.353Z,97819.75
2019-01-29T10:31:14.482Z,97820.02
2019-01-29T10:33:45.875Z,97816.91
2019-01-29T10:36:18.056Z,97808.53
2019-01-29T10:38:50.390Z,97811.47
2019-01-29T10:41:26.070Z,97798.61
2019-01-29T10:43:58.426Z,97795.97
2019-01-29T10:46:34.064Z,97795.16
2019-01-29T10:49:06.526Z,97798.36
2019-01-29T10:51:42.008Z,97797.39
2019-01-29T10:54:14.494Z,97795.56
2019-01-29T10:56:45.785Z,97789.57
2019-01-29T10:59:18.301Z,97792.52
2019-01-29T11:01:52.530Z,97789.52
2019-01-29T11:04:24.506Z,97807.63
2019-01-29T11:06:57.527Z,97800.04
2019-01-29T11:09:30.486Z,97800.53
2019-01-29T11:12:02.603Z,97807.38
2019-01-29T11:14:36.638Z,97806.17
2019-01-29T11:17:10.553Z,97796.66
2019-01-29T11:19:46.156Z,97800.77
2019-01-29T11:22:18.471Z,97798.77
2019-01-29T11:24:49.828Z,97797.08
2019-01-29T11:27:23.755Z,97798.03
2019-01-29T11:29:57.756Z,97801.13
2019-01-29T11:32:31.639Z,97797.28
2019-01-29T11:35:03.527Z,97794.65
2019-01-29T11:37:36.833Z,97795.42
2019-01-29T11:40:13.319Z,97786.81
2019-01-29T11:42:44.792Z,97794.15
2019-01-29T11:45:35.587Z,97792.98
2019-01-29T11:48:09.824Z,97788.43
2019-01-29T11:50:43.691Z,97787.25
2019-01-29T11:53:15.242Z,97784.61
2019-01-29T11:55:46.484Z,97788.70
2019-01-29T11:58:18.350Z,97789.30
2019-01-29T12:01:01.034Z,97784.87
2019-01-29T12:03:33.841Z,97785.51
2019-01-29T12:06:05.434Z,97776.35
2019-01-29T12:08:36.703Z,97771.33
2019-01-29T12:11:09.916Z,97762.83
2019-01-29T12:13:43.716Z,97768.77
2019-01-29T12:16:19.546Z,97766.51
2019-01-29T12:18:53.467Z,97756.59
2019-01-29T12:21:24.815Z,97760.48
2019-01-29T12:23:56.710Z,97762.05
2019-01-29T12:26:30.805Z,97763.09
2019-01-29T12:29:05.900Z,97766.85
2019-01-29T12:31:37.842Z,97767.44
2019-01-29T12:34:11.829Z,97777.73
2019-01-29T12:36:46.027Z,97773.78
2019-01-29T12:39:17.370Z,97763.45
2019-01-29T12:41:48.675Z,97763.27
2019-01-29T12:44:21.886Z,97763.42
2019-01-29T12:46:56.032Z,97761.34
2019-01-29T12:49:30.066Z,97756.75
2019-01-29T12:52:10.712Z,97749.96
2019-01-29T12:54:44.021Z,97742.70
2019-01-29T12:57:18.619Z,97753.30
2019-01-29T12:59:52.147Z,97754.25
2019-01-29T13:02:25.116Z,97751.68
2019-01-29T13:04:57.070Z,97755.42
2019-01-29T13:07:28.323Z,97748.27
2019-01-29T13:09:59.804Z,97749.47
2019-01-29T13:12:33.024Z,97736.77
2019-01-29T13:15:07.437Z,97742.50
2019-01-29T13:17:41.150Z,97743.75
2019-01-29T13:20:15.171Z,97747.56
2019-01-29T13:22:48.044Z,97746.75
2019-01-29T13:25:19.688Z,97748.26
2019-01-29T13:27:50.987Z,97752.42
2019-01-29T13:30:28.114Z,97749.25
2019-01-29T13:32:59.365Z,97750.12
2019-01-29T13:35:35.403Z,97753.43
2019-01-29T13:38:07.986Z,97760.39
2019-01-29T13:40:40.985Z,97754.92
2019-01-29T13:43:13.163Z,97751.17
2019-01-29T13:45:47.381Z,97725.57
2019-01-29T13:48:19.713Z,97742.52
2019-01-29T13:50:57.222Z,97743.96
2019-01-29T13:53:32.799Z,97741.81
2019-01-29T13:56:05.514Z,97741.88
2019-01-29T13:58:39.538Z,97741.44
2019-01-29T14:01:15.230Z,97741.30
2019-01-29T14:03:49.074Z,97731.77
2019-01-29T14:06:21.719Z,97726.56
2019-01-29T14:08:57.577Z,97738.88
2019-01-29T14:11:29.356Z,97729.08
2019-01-29T14:14:03.338Z,97734.21
2019-01-29T14:16:37.377Z,97736.69
2019-01-29T14:19:11.497Z,97734.59
2019-01-29T14:21:45.388Z,97731.45
2019-01-29T14:24:18.696Z,97735.25
2019-01-29T14:26:50.378Z,97724.44
2019-01-29T14:29:22.605Z,97732.39
2019-01-29T14:31:55.566Z,97731.88
2019-01-29T14:34:28.530Z,97730.91
2019-01-29T14:37:00.583Z,97727.86
2019-01-29T14:40:07.679Z,97728.72
2019-01-29T14:42:38.924Z,97721.63
2019-01-29T14:45:19.855Z,97721.55
2019-01-29T14:47:52.335Z,97723.38
2019-01-29T14:50:24.799Z,97722.67
2019-01-29T14:52:57.677Z,97721.05
2019-01-29T14:55:31.860Z,97717.61
2019-01-29T14:58:05.801Z,97721.78
2019-01-29T15:00:39.993Z,97718.05
2019-01-29T15:03:13.548Z,97721.45
2019-01-29T15:05:44.840Z,97716.00
2019-01-29T15:08:20.339Z,97713.74
2019-01-29T15:10:52.714Z,97715.77
2019-01-29T15:13:25.807Z,97709.11
2019-01-29T15:16:04.417Z,97715.03
2019-01-29T15:18:43.586Z,97708.81
2019-01-29T15:21:18.082Z,97712.96
2019-01-29T15:23:51.431Z,97716.72
2019-01-29T15:26:22.688Z,97714.98
2019-01-29T15:28:58.221Z,97717.57
2019-01-29T15:31:30.889Z,97711.27
2019-01-29T15:34:05.048Z,97716.64
2019-01-29T15:36:40.444Z,97714.70
2019-01-29T15:39:13.199Z,97713.14
2019-01-29T15:41:46.892Z,97698.81
2019-01-29T15:44:19.059Z,97710.95
2019-01-29T15:46:50.870Z,97712.63
2019-01-29T15:49:23.975Z,97710.89
2019-01-29T15:51:59.922Z,97712.30
2019-01-29T15:54:32.111Z,97711.41
2019-01-29T15:57:03.892Z,97712.79
2019-01-29T15:59:42.767Z,97711.94
2019-01-29T16:02:09.061Z,97709.72
2019-01-29T16:04:42.881Z,97704.79
2019-01-29T16:07:15.058Z,97710.07
2019-01-29T16:09:48.056Z,97697.55
2019-01-29T16:12:19.300Z,97703.23
2019-01-29T16:14:52.892Z,97705.45
2019-01-29T16:17:25.047Z,97700.80
2019-01-29T16:19:58.140Z,97703.54
2019-01-29T16:22:29.406Z,97701.01
2019-01-29T16:25:02.926Z,97700.63
2019-01-29T16:27:38.565Z,97703.34
2019-01-29T16:30:14.710Z,97712.03
2019-01-29T16:32:48.143Z,97709.11
2019-01-29T16:35:23.821Z,97708.49
2019-01-29T16:37:56.161Z,97705.27
2019-01-29T16:40:32.329Z,97694.38
2019-01-29T16:43:04.215Z,97692.47
2019-01-29T16:45:39.118Z,97698.59
2019-01-29T16:48:13.907Z,97695.55
2019-01-29T16:50:46.113Z,97697.89
2019-01-29T16:53:19.017Z,97698.99
2019-01-29T16:55:51.167Z,97693.34
2019-01-29T16:58:25.207Z,97698.97
2019-01-29T17:01:00.971Z,97694.00
2019-01-29T17:03:33.201Z,97691.28
2019-01-29T17:06:08.811Z,97694.23
2019-01-29T17:08:42.778Z,97692.03
2019-01-29T17:11:16.447Z,97686.80
2019-01-29T17:13:48.264Z,97685.06
2019-01-29T17:16:19.694Z,97680.64
2019-01-29T17:18:51.355Z,97674.81
2019-01-29T17:21:26.484Z,97677.11
2019-01-29T17:23:59.211Z,97679.34
2019-01-29T17:26:32.115Z,97679.41
2019-01-29T17:29:06.424Z,97677.28
2019-01-29T17:31:38.370Z,97681.98
2019-01-29T17:34:12.321Z,97686.08
2019-01-29T17:36:44.585Z,97682.61
2019-01-29T17:39:17.457Z,97675.67
2019-01-29T17:41:51.707Z,97680.77
2019-01-29T17:44:25.574Z,97671.50
2019-01-29T17:46:59.401Z,97673.34
2019-01-29T17:49:31.446Z,97674.02
2019-01-29T17:52:04.488Z,97673.25
2019-01-29T17:54:36.178Z,97676.38
2019-01-29T17:57:09.412Z,97668.66
2019-01-29T17:59:43.513Z,97668.95
2019-01-29T18:02:15.570Z,97674.38
2019-01-29T18:04:50.473Z,97670.14
2019-01-29T18:07:22.860Z,97672.95
2019-01-29T18:09:56.916Z,97668.29
2019-01-29T18:12:30.542Z,97671.27
2019-01-29T18:15:01.892Z,97660.52
2019-01-29T18:17:35.665Z,97661.48
2019-01-29T18:20:11.324Z,97663.78
2019-01-29T18:22:43.556Z,97655.63
2019-01-29T18:25:17.604Z,97655.94
2019-01-29T18:28:00.599Z,97653.27
2019-01-29T18:30:31.056Z,97652.58
2019-01-29T18:33:02.677Z,97648.33
2019-01-29T18:35:36.668Z,97645.81
2019-01-29T18:38:12.257Z,97646.19
2019-01-29T18:40:50.368Z,97635.52
2019-01-29T18:43:22.802Z,97633.63
2019-01-29T18:45:54.616Z,97641.02
2019-01-29T18:48:26.126Z,97634.38
2019-01-29T18:50:59.808Z,97634.69
2019-01-29T18:53:35.355Z,97636.51
2019-01-29T18:56:07.775Z,97628.12
2019-01-29T18:58:40.934Z,97632.16
2019-01-29T19:01:12.778Z,97628.63
2019-01-29T19:03:49.696Z,97622.59
2019-01-29T19:06:24.296Z,97622.67
2019-01-29T19:08:57.872Z,97617.38
2019-01-29T19:11:31.895Z,97618.80
2019-01-29T19:14:05.881Z,97611.55
2019-01-29T19:16:39.922Z,97604.52
2019-01-29T19:19:14.773Z,97604.34
2019-01-29T19:21:47.930Z,97606.75
2019-01-29T19:24:19.432Z,97603.48
2019-01-29T19:26:53.055Z,97595.13
2019-01-29T19:29:25.837Z,97600.36
2019-01-29T19:31:57.289Z,97601.16
2019-01-29T19:34:31.190Z,97599.42
2019-01-29T19:37:04.965Z,97598.24
2019-01-29T19:39:39.068Z,97605.02
2019-01-29T19:42:13.056Z,97597.55
2019-01-29T19:44:46.957Z,97595.34
2019-01-29T19:47:19.211Z,97594.70
2019-01-29T19:49:52.049Z,97592.09
2019-01-29T19:52:26.893Z,97581.25
2019-01-29T19:55:00.280Z,97575.14
2019-01-29T19:57:34.132Z,97584.59
2019-01-29T20:00:15.027Z,97579.16
2019-01-29T20:02:48.207Z,97577.61
2019-01-29T20:05:20.306Z,97570.28
2019-01-29T20:07:52.116Z,97568.16
2019-01-29T20:10:27.780Z,97570.45
2019-01-29T20:13:01.687Z,97571.46
2019-01-29T20:15:34.189Z,97570.45
2019-01-29T20:18:08.045Z,97578.91
2019-01-29T20:20:42.296Z,97569.27
2019-01-29T20:23:16.143Z,97566.54
2019-01-29T20:25:50.086Z,97555.70
2019-01-29T20:28:23.029Z,97551.83
2019-01-29T20:30:55.107Z,97548.16
2019-01-29T20:33:29.259Z,97555.04
2019-01-29T20:36:03.270Z,97551.81
2019-01-29T20:38:37.183Z,97551.56
2019-01-29T20:41:11.283Z,97543.10
2019-01-29T20:43:45.241Z,97547.66
2019-01-29T20:46:21.851Z,97538.58
2019-01-29T20:48:55.122Z,97541.52
2019-01-29T20:51:26.876Z,97536.06
2019-01-29T20:54:01.191Z,97521.81
2019-01-29T20:56:34.354Z,97521.81
2019-01-29T20:59:08.445Z,97519.31
2019-01-29T21:01:45.743Z,97509.52
2019-01-29T21:04:17.107Z,97513.88
2019-01-29T21:06:51.887Z,97502.91
2019-01-29T21:09:25.316Z,97509.67
2019-01-29T21:11:58.411Z,97503.16
2019-01-29T21:14:32.428Z,97503.66
2019-01-29T21:17:06.291Z,97499.75
2019-01-29T21:19:38.062Z,97498.94
2019-01-29T21:22:11.405Z,97492.71
2019-01-29T21:24:43.354Z,97497.84
2019-01-29T21:27:16.418Z,97491.08
2019-01-29T21:29:50.453Z,97486.47
2019-01-29T21:32:22.392Z,97490.25
2019-01-29T21:34:55.521Z,97484.82
2019-01-29T21:37:28.482Z,97479.62
2019-01-29T21:40:00.355Z,97482.05
2019-01-29T21:42:31.704Z,97480.30
2019-01-29T21:45:06.865Z,97473.47
2019-01-29T21:47:39.390Z,97471.62
2019-01-29T21:50:21.739Z,97464.78
2019-01-29T21:52:53.753Z,97461.50
2019-01-29T21:55:27.771Z,97461.56
2019-01-29T21:58:01.515Z,97463.63
2019-01-29T22:00:44.329Z,97454.87
2019-01-29T22:03:18.948Z,97453.27
2019-01-29T22:05:52.600Z,97441.38
2019-01-29T22:08:25.687Z,97434.51
2019-01-29T22:10:56.999Z,97428.56
2019-01-29T22:13:28.378Z,97425.63
2019-01-29T22:16:01.669Z,97429.21
2019-01-29T22:18:35.489Z,97421.77
2019-01-29T22:21:12.069Z,97418.09
2019-01-29T22:23:43.672Z,97357.34
2019-01-29T22:26:19.248Z,97414.29
2019-01-29T22:28:51.765Z,97411.84
2019-01-29T22:31:25.684Z,97400.02
2019-01-29T22:34:01.211Z,97407.81
2019-01-29T22:36:33.681Z,97395.17
2019-01-29T22:39:08.901Z,97394.91
2019-01-29T22:41:41.584Z,97392.02
2019-01-29T22:44:15.720Z,97387.49
2019-01-29T22:46:48.672Z,97383.27
2019-01-29T22:49:19.994Z,97384.69
2019-01-29T22:51:51.610Z,97383.09
2019-01-29T22:54:23.720Z,97373.19
2019-01-29T22:56:56.665Z,97371.78
2019-01-29T22:59:33.475Z,97377.06
2019-01-29T23:02:03.607Z,97360.37
2019-01-29T23:04:39.859Z,97357.34
2019-01-29T23:07:31.829Z,97357.31
2019-01-29T23:10:08.784Z,97344.59
2019-01-29T23:12:41.889Z,97340.39
2019-01-29T23:15:15.990Z,97336.76
2019-01-29T23:17:47.799Z,97328.61
2019-01-29T23:20:19.736Z,97324.35
2019-01-29T23:22:51.567Z,97326.89
2019-01-29T23:25:22.912Z,97319.41
2019-01-29T23:27:54.359Z,97320.33
2019-01-29T23:30:26.190Z,97304.11
2019-01-29T23:32:58.916Z,97300.18
2019-01-29T23:35:31.801Z,97299.69
2019-01-29T23:38:03.855Z,97295.47
2019-01-29T23:40:37.761Z,97281.95
2019-01-29T23:43:09.219Z,97280.30
2019-01-29T23:45:44.731Z,97275.81
2019-01-29T23:48:16.851Z,97265.55
2019-01-29T23:50:50.838Z,97263.75
2019-01-29T23:53:22.134Z,97257.75
2019-01-29T23:55:56.006Z,97254.33
2019-01-29T23:58:29.985Z,97249.27
